Time;durP1;ratioP1;P1;durP2;ratioP2;P2;SDS_P1;SDS_P2;PMS_P1;PMS_P2;Temp;Humidity;BMP_temperature;BMP_pressure;BME280_temperature;BME280_humidity;BME280_pressure;Samples;Min_cycle;Max_cycle;Signal;HPM_P1;HPM_P2
2024/02/19 00:03:29;;;;;;;11.30;6.30;;;;;;;4.50;72.06;101205.86;682012;1265;138641;-79
2024/02/19 00:18:33;;;;;;;13.20;7.90;;;;;;;4.70;71.52;101185.52;681878;1265;139589;-79
2024/02/19 00:33:38;;;;;;;20.30;8.60;;;;;;;4.63;71.18;101175.98;681856;1260;140540;-80
2024/02/19 00:48:41;;;;;;;15.00;8.00;;;;;;;4.59;71.27;101166.10;681930;1266;140094;-80
2024/02/19 01:03:45;;;;;;;16.30;8.50;;;;;;;4.46;70.98;101128.45;682019;1265;138646;-80
2024/02/19 01:18:49;;;;;;;24.30;11.00;;;;;;;4.37;71.19;101082.47;681780;1261;140103;-80
2024/02/19 01:33:53;;;;;;;20.00;10.80;;;;;;;4.26;71.48;101052.72;681894;1266;139953;-79
2024/02/19 01:48:57;;;;;;;17.70;9.70;;;;;;;4.17;71.89;101024.08;681960;1261;140381;-79
2024/02/19 02:04:02;;;;;;;15.80;9.80;;;;;;;4.25;71.89;100994.38;681995;1265;141132;-79
2024/02/19 02:19:06;;;;;;;14.20;8.20;;;;;;;4.28;71.32;100967.57;681810;1265;139645;-79
2024/02/19 02:34:09;;;;;;;14.10;8.00;;;;;;;4.39;71.04;100925.80;681933;1263;139375;-78
2024/02/19 02:49:13;;;;;;;16.30;8.70;;;;;;;4.38;70.40;100901.96;681960;1261;140351;-77
2024/02/19 03:04:16;;;;;;;12.30;7.30;;;;;;;4.41;70.06;100882.72;682061;1266;139093;-78
2024/02/19 03:19:20;;;;;;;15.20;8.70;;;;;;;4.30;70.17;100864.80;681774;1265;139923;-78
2024/02/19 03:34:24;;;;;;;15.80;8.90;;;;;;;4.18;70.46;100837.50;681893;1266;139471;-78
2024/02/19 03:49:27;;;;;;;19.60;10.10;;;;;;;4.08;71.22;100807.45;681918;1264;139532;-79
2024/02/19 04:04:31;;;;;;;21.80;12.80;;;;;;;4.02;71.81;100797.16;681958;1266;140327;-78
2024/02/19 04:19:34;;;;;;;22.50;12.80;;;;;;;3.88;72.62;100776.25;681740;1261;140903;-79
2024/02/19 04:34:38;;;;;;;25.10;12.90;;;;;;;3.81;73.23;100764.48;682017;1267;141384;-79
2024/02/19 04:49:43;;;;;;;23.10;11.60;;;;;;;3.80;73.53;100742.59;681902;1264;139629;-79
2024/02/19 05:04:46;;;;;;;22.50;12.80;;;;;;;3.68;74.06;100709.98;681906;1260;140242;-79
2024/02/19 05:19:50;;;;;;;28.60;15.40;;;;;;;3.62;74.50;100687.98;681678;1264;139008;-79
2024/02/19 05:34:55;;;;;;;27.50;13.20;;;;;;;3.68;74.81;100657.73;681943;1264;140268;-79
2024/02/19 05:49:59;;;;;;;24.80;11.40;;;;;;;3.67;74.65;100632.89;681807;1262;140831;-79
2024/02/19 06:05:03;;;;;;;21.70;10.90;;;;;;;3.65;74.65;100613.95;681795;1261;139793;-79
2024/02/19 06:20:10;;;;;;;58.90;29.10;;;;;;;3.77;74.39;100609.48;681840;1273;139582;-79
2024/02/19 06:35:14;;;;;;;84.80;35.60;;;;;;;3.75;74.46;100584.90;682042;1260;139264;-79
2024/02/19 06:50:17;;;;;;;30.00;15.70;;;;;;;3.78;74.36;100579.34;681941;1261;139552;-79
2024/02/19 07:05:21;;;;;;;24.30;13.50;;;;;;;3.89;74.43;100576.18;681861;1261;140197;-79
2024/02/19 07:20:25;;;;;;;57.60;31.50;;;;;;;4.11;74.68;100558.02;681818;1264;139537;-79
2024/02/19 07:35:28;;;;;;;47.80;18.60;;;;;;;4.29;74.56;100549.31;682030;1260;138904;-79
2024/02/19 07:50:35;;;;;;;20.30;11.40;;;;;;;4.30;74.12;100526.08;681982;1263;140203;-79
2024/02/19 08:05:40;;;;;;;51.40;19.70;;;;;;;4.29;74.49;100503.10;682020;1263;138845;-79
2024/02/19 08:20:44;;;;;;;27.80;14.70;;;;;;;4.37;74.89;100476.82;681873;1261;139194;-80
2024/02/19 08:35:52;;;;;;;68.90;26.60;;;;;;;4.29;75.25;100456.18;682083;1261;140035;-80
2024/02/19 08:50:55;;;;;;;71.30;25.90;;;;;;;4.27;75.98;100414.05;681741;1264;140447;-80
2024/02/19 09:05:58;;;;;;;74.00;37.10;;;;;;;4.25;77.55;100417.28;681840;1263;139990;-80
2024/02/19 09:21:04;;;;;;;118.00;34.70;;;;;;;4.24;79.35;100428.77;681909;1266;139131;-79
2024/02/19 09:36:19;;;;;;;151.90;43.90;;;;;;;4.27;80.03;100400.18;681877;1261;139179;-79
2024/02/19 09:51:25;;;;;;;81.40;29.00;;;;;;;4.20;80.54;100380.68;682049;1266;139455;-79
2024/02/19 10:06:41;;;;;;;94.00;30.80;;;;;;;4.16;80.65;100358.06;681750;1261;139156;-79
2024/02/19 10:21:48;;;;;;;76.70;23.00;;;;;;;4.26;81.67;100350.93;682018;1261;139131;-79
2024/02/19 10:36:53;;;;;;;102.60;39.30;;;;;;;4.13;83.75;100343.20;681999;1261;140252;-79
2024/02/19 10:51:58;;;;;;;54.30;23.70;;;;;;;4.22;85.00;100323.94;681977;1264;140316;-78
2024/02/19 11:07:03;;;;;;;42.10;20.40;;;;;;;4.33;84.85;100299.73;681870;1261;139919;-79
2024/02/19 11:22:11;;;;;;;126.50;38.50;;;;;;;4.39;85.45;100295.24;681968;1261;193163;-78
2024/02/19 11:37:17;;;;;;;39.80;20.00;;;;;;;4.33;88.19;100289.55;681984;1264;140121;-79
2024/02/19 11:52:21;;;;;;;57.40;26.90;;;;;;;4.41;89.01;100262.91;682022;1264;140009;-80
2024/02/19 12:07:25;;;;;;;69.90;27.50;;;;;;;4.42;90.18;100232.20;681726;1261;139445;-80
2024/02/19 12:22:30;;;;;;;167.30;59.00;;;;;;;4.59;90.80;100211.22;682073;1267;139114;-79
2024/02/19 12:37:34;;;;;;;125.20;45.80;;;;;;;4.62;91.78;100194.36;681884;1264;140386;-79
2024/02/19 12:52:38;;;;;;;119.10;43.30;;;;;;;4.79;91.96;100167.45;681848;1262;140018;-80
2024/02/19 13:07:47;;;;;;;122.80;45.30;;;;;;;5.05;92.13;100138.34;681781;1264;140644;-79
2024/02/19 13:22:52;;;;;;;43.60;22.50;;;;;;;5.05;92.63;100117.20;681935;1264;139386;-78
2024/02/19 13:37:57;;;;;;;124.00;56.50;;;;;;;5.05;93.21;100110.77;681933;1265;140408;-78
2024/02/19 13:53:02;;;;;;;62.70;30.10;;;;;;;5.24;93.59;100106.95;681945;1263;139796;-78
2024/02/19 14:08:08;;;;;;;63.60;31.00;;;;;;;5.31;93.13;100113.02;681820;1267;139658;-78
2024/02/19 14:23:17;;;;;;;88.00;39.20;;;;;;;5.29;93.51;100095.98;681908;1265;139590;-80
2024/02/19 14:38:22;;;;;;;73.50;33.60;;;;;;;5.20;94.15;100077.23;681843;1264;138839;-80
2024/02/19 14:53:26;;;;;;;63.00;27.70;;;;;;;5.25;94.03;100070.79;681752;1263;139073;-80
2024/02/19 15:08:31;;;;;;;63.30;30.80;;;;;;;5.39;94.25;100077.09;681835;1265;138813;-80
2024/02/19 15:23:39;;;;;;;52.70;27.20;;;;;;;5.44;94.25;100075.20;681967;1265;140283;-80
2024/02/19 15:38:46;;;;;;;41.70;22.60;;;;;;;5.49;94.09;100076.80;681748;1264;139054;-80
2024/02/19 15:53:52;;;;;;;109.80;46.60;;;;;;;5.59;94.41;100086.83;681831;1265;138980;-80
2024/02/19 16:08:59;;;;;;;102.90;38.40;;;;;;;5.86;93.66;100093.92;681849;1269;139628;-79
2024/02/19 16:24:03;;;;;;;104.10;39.10;;;;;;;5.95;93.01;100101.84;681863;1265;140600;-80
2024/02/19 16:39:08;;;;;;;69.20;31.90;;;;;;;6.08;93.34;100101.46;681938;1265;139024;-79
2024/02/19 16:54:23;;;;;;;234.60;98.00;;;;;;;6.09;92.94;100105.89;681680;1265;139412;-79
2024/02/19 17:09:28;;;;;;;76.40;33.30;;;;;;;6.09;93.46;100116.30;681972;1266;140523;-80
2024/02/19 17:24:36;;;;;;;107.20;48.10;;;;;;;6.15;93.90;100124.03;681925;1263;138976;-79
2024/02/19 17:39:44;;;;;;;69.70;32.10;;;;;;;6.10;94.43;100129.04;681898;1266;139276;-80
2024/02/19 17:54:50;;;;;;;82.50;34.80;;;;;;;6.14;94.72;100132.80;681733;1267;139554;-79
2024/02/19 18:09:55;;;;;;;96.50;39.60;;;;;;;6.19;95.52;100140.42;681997;1267;139308;-79
2024/02/19 18:25:00;;;;;;;84.30;36.70;;;;;;;6.27;96.41;100153.58;681846;1262;138915;-79
2024/02/19 18:40:08;;;;;;;41.30;19.30;;;;;;;6.46;97.49;100162.44;681859;1266;140114;-80
2024/02/19 18:55:12;;;;;;;40.00;17.40;;;;;;;6.70;97.75;100169.77;681615;1266;139962;-80
2024/02/19 19:10:16;;;;;;;37.70;17.40;;;;;;;6.74;97.47;100181.47;681985;1265;139048;-79
2024/02/19 19:25:19;;;;;;;25.50;12.30;;;;;;;6.79;98.00;100184.35;681796;1273;139355;-80
2024/02/19 19:40:23;;;;;;;23.60;10.50;;;;;;;6.84;98.04;100186.13;681741;1265;139076;-79
2024/02/19 19:55:28;;;;;;;18.20;7.90;;;;;;;6.87;98.27;100191.81;681665;1267;139226;-80
2024/02/19 20:10:32;;;;;;;34.10;12.90;;;;;;;6.92;97.83;100195.77;681953;1260;138434;-80
2024/02/19 20:25:36;;;;;;;34.60;14.30;;;;;;;6.84;98.86;100207.70;681634;1264;138809;-79
2024/02/19 20:40:41;;;;;;;39.60;14.90;;;;;;;6.90;98.79;100220.97;681829;1263;139139;-80
2024/02/19 20:55:45;;;;;;;20.60;8.80;;;;;;;6.97;98.18;100239.18;681858;1265;139415;-80
2024/02/19 21:10:51;;;;;;;19.10;8.80;;;;;;;6.98;98.14;100245.21;682004;1266;138900;-79
2024/02/19 21:25:54;;;;;;;15.50;8.00;;;;;;;6.90;98.23;100246.00;681859;1261;139211;-78
2024/02/19 21:41:00;;;;;;;22.80;12.30;;;;;;;6.83;98.78;100248.54;681876;1261;138685;-79
2024/02/19 21:56:04;;;;;;;27.00;12.20;;;;;;;6.73;99.39;100255.91;681737;1264;139800;-80
2024/02/19 22:11:13;;;;;;;19.50;10.90;;;;;;;6.72;99.40;100258.22;681858;1264;138542;-78
2024/02/19 22:26:20;;;;;;;18.30;10.70;;;;;;;6.71;99.75;100260.02;681873;1261;139399;-78
2024/02/19 22:41:23;;;;;;;21.20;9.80;;;;;;;6.67;99.29;100262.40;682008;1261;140297;-79
2024/02/19 22:56:27;;;;;;;20.00;9.90;;;;;;;6.68;98.76;100267.40;681902;1266;139019;-79
2024/02/19 23:11:31;;;;;;;16.90;8.60;;;;;;;6.61;98.88;100276.27;682097;1260;139390;-79
2024/02/19 23:26:35;;;;;;;12.20;6.60;;;;;;;6.58;99.44;100276.48;681808;1261;182524;-79
2024/02/19 23:41:39;;;;;;;14.90;7.00;;;;;;;6.63;99.86;100273.45;681849;1260;138526;-79
2024/02/19 23:56:42;;;;;;;10.20;5.30;;;;;;;6.64;99.93;100272.88;681899;1266;138891;-80
